createdAt,value
2023-03-23T15:57:55.279Z,98228.25
2023-03-23T16:00:24.181Z,98230.13
2023-03-23T16:03:02.001Z,98230.50
2023-03-23T16:05:29.825Z,98217.19
2023-03-23T16:07:56.414Z,98227.59
2023-03-23T16:10:24.721Z,98232.44
2023-03-23T16:12:51.275Z,98230.75
2023-03-23T16:15:18.964Z,98232.81
2023-03-23T16:17:46.610Z,98236.91
2023-03-23T16:20:20.303Z,98237.09
2023-03-23T16:22:47.696Z,98238.31
2023-03-23T16:25:15.247Z,98240.31
2023-03-23T16:27:42.972Z,98223.63
2023-03-23T16:30:15.924Z,98219.28
2023-03-23T16:32:43.406Z,98223.22
2023-03-23T16:35:10.897Z,98218.03
2023-03-23T16:37:37.575Z,98224.41
2023-03-23T16:40:05.563Z,98221.09
2023-03-23T16:42:32.117Z,98222.34
2023-03-23T16:44:58.884Z,98217.09
2023-03-23T16:47:25.539Z,98221.22
2023-03-23T16:49:52.813Z,98226.91
2023-03-23T16:52:19.948Z,98237.44
2023-03-23T16:54:46.446Z,98242.31
2023-03-23T16:57:12.976Z,98239.56
2023-03-23T16:59:39.938Z,98234.91
2023-03-23T17:02:07.073Z,98239.22
2023-03-23T17:04:34.282Z,98231.91
2023-03-23T17:07:00.933Z,98228.44
2023-03-23T17:09:28.208Z,98240.16
2023-03-23T17:11:55.225Z,98233.22
2023-03-23T17:14:21.919Z,98234.78
2023-03-23T17:16:48.352Z,98236.56
2023-03-23T17:19:15.269Z,98243.09
2023-03-23T17:21:42.155Z,98242.38
2023-03-23T17:24:09.039Z,98251.16
2023-03-23T17:26:36.653Z,98262.59
2023-03-23T17:29:04.131Z,98260.91
2023-03-23T17:31:30.796Z,98269.19
2023-03-23T17:33:57.992Z,98258.66
2023-03-23T17:36:24.682Z,98263.59
2023-03-23T17:38:51.159Z,98266.66
2023-03-23T17:41:20.943Z,98267.09
2023-03-23T17:43:47.780Z,98265.34
2023-03-23T17:46:14.784Z,98271.19
2023-03-23T17:48:41.655Z,98275.22
2023-03-23T17:51:09.797Z,98267.81
2023-03-23T17:53:36.688Z,98267.47
2023-03-23T17:56:04.927Z,98268.56
2023-03-23T17:58:32.084Z,98267.09
2023-03-23T18:00:58.608Z,98273.66
2023-03-23T18:03:26.520Z,98281.75
2023-03-23T18:05:59.340Z,98273.59
2023-03-23T18:08:26.801Z,98278.22
2023-03-23T18:10:55.428Z,98272.31
2023-03-23T18:13:22.563Z,98273.47
2023-03-23T18:15:49.475Z,98268.66
2023-03-23T18:18:16.218Z,98271.72
2023-03-23T18:20:42.837Z,98275.81
2023-03-23T18:23:09.588Z,98271.97
2023-03-23T18:25:37.420Z,98269.91
2023-03-23T18:28:05.045Z,98266.41
2023-03-23T18:30:34.878Z,98269.56
2023-03-23T18:33:01.616Z,98280.38
2023-03-23T18:35:28.535Z,98277.81
2023-03-23T18:37:55.542Z,98278.84
2023-03-23T18:40:22.168Z,98277.69
2023-03-23T18:42:49.133Z,98282.72
2023-03-23T18:45:16.012Z,98272.81
2023-03-23T18:47:43.414Z,98275.22
2023-03-23T18:50:11.568Z,98271.53
2023-03-23T18:52:38.569Z,98266.16
2023-03-23T18:55:06.297Z,98263.53
2023-03-23T18:57:32.752Z,98255.94
2023-03-23T18:59:59.331Z,98256.97
2023-03-23T19:02:25.838Z,98255.09
2023-03-23T19:04:52.270Z,98252.88
2023-03-23T19:07:19.865Z,98260.97
2023-03-23T19:09:47.385Z,98262.81
2023-03-23T19:12:16.179Z,98263.00
2023-03-23T19:14:43.935Z,98268.19
2023-03-23T19:17:11.069Z,98256.47
2023-03-23T19:19:38.537Z,98261.97
2023-03-23T19:22:06.438Z,98246.22
2023-03-23T19:24:33.381Z,98247.28
2023-03-23T19:27:00.184Z,98250.50
2023-03-23T19:29:27.540Z,98247.63
2023-03-23T19:31:57.700Z,98232.25
2023-03-23T19:34:25.524Z,98226.22
2023-03-23T19:36:56.334Z,98221.19
2023-03-23T19:39:30.860Z,98208.41
2023-03-23T19:41:58.592Z,98208.28
2023-03-23T19:44:25.568Z,98190.41
2023-03-23T19:46:53.970Z,98200.97
2023-03-23T19:49:20.904Z,98205.59
2023-03-23T19:51:47.370Z,98198.16
2023-03-23T19:54:13.899Z,98194.84
2023-03-23T19:56:40.764Z,98201.41
2023-03-23T19:59:10.571Z,98206.84
2023-03-23T20:01:37.744Z,98210.69
2023-03-23T20:04:05.099Z,98207.84
2023-03-23T20:06:31.999Z,98209.41
2023-03-23T20:09:00.230Z,98212.97
2023-03-23T20:11:28.013Z,98203.03
2023-03-23T20:13:55.237Z,98196.03
2023-03-23T20:16:21.873Z,98191.84
2023-03-23T20:18:49.940Z,98196.06
2023-03-23T20:21:20.432Z,98189.69
2023-03-23T20:23:46.909Z,98186.34
2023-03-23T20:26:21.145Z,98186.84
2023-03-23T20:28:48.254Z,98181.69
2023-03-23T20:31:23.382Z,98187.06
2023-03-23T20:33:59.822Z,98184.06
2023-03-23T20:36:36.375Z,98197.16
2023-03-23T20:39:08.104Z,98183.38
2023-03-23T20:41:41.965Z,98179.19
2023-03-23T20:44:13.978Z,98178.13
2023-03-23T20:46:42.725Z,98177.38
2023-03-23T20:49:10.027Z,98178.25
2023-03-23T20:51:37.277Z,98186.78
2023-03-23T20:54:04.610Z,98180.97
2023-03-23T20:56:31.840Z,98182.00
2023-03-23T20:58:58.874Z,98179.94
2023-03-23T21:01:26.195Z,98174.22
2023-03-23T21:03:54.377Z,98176.56
2023-03-23T21:06:22.149Z,98166.09
2023-03-23T21:08:49.043Z,98156.00
2023-03-23T21:11:19.031Z,98161.72
2023-03-23T21:13:46.656Z,98155.34
2023-03-23T21:16:13.095Z,98147.94
2023-03-23T21:18:39.565Z,98144.59
2023-03-23T21:21:09.268Z,98144.06
2023-03-23T21:23:36.057Z,98148.09
2023-03-23T21:26:08.083Z,98141.19
2023-03-23T21:28:35.808Z,98140.34
2023-03-23T21:31:05.692Z,98137.16
2023-03-23T21:33:32.072Z,98128.50
2023-03-23T21:36:00.505Z,98116.53
2023-03-23T21:38:28.135Z,98120.44
2023-03-23T21:40:56.460Z,98121.09
2023-03-23T21:43:28.257Z,98129.56
2023-03-23T21:45:56.742Z,98126.69
2023-03-23T21:48:25.167Z,98120.72
2023-03-23T21:50:52.027Z,98124.78
2023-03-23T21:53:19.165Z,98125.59
2023-03-23T21:55:53.065Z,98122.03
2023-03-23T21:58:23.908Z,98124.91
2023-03-23T22:00:53.948Z,98136.31
2023-03-23T22:03:24.425Z,98127.47
2023-03-23T22:05:54.478Z,98124.09
2023-03-23T22:08:22.784Z,98129.31
2023-03-23T22:11:01.177Z,98137.47
2023-03-23T22:13:33.106Z,98130.78
2023-03-23T22:16:02.786Z,98122.44
2023-03-23T22:18:29.708Z,98120.16
2023-03-23T22:20:59.238Z,98105.78
2023-03-23T22:23:26.656Z,98104.59
2023-03-23T22:25:53.934Z,98108.88
2023-03-23T22:28:20.447Z,98096.06
2023-03-23T22:30:47.864Z,98118.63
2023-03-23T22:33:17.820Z,98100.34
2023-03-23T22:35:46.121Z,98101.91
2023-03-23T22:38:14.022Z,98104.59
2023-03-23T22:40:42.386Z,98114.72
2023-03-23T22:43:09.147Z,98109.63
2023-03-23T22:45:35.800Z,98108.63
2023-03-23T22:48:05.121Z,98085.88
2023-03-23T22:50:32.224Z,98087.75
2023-03-23T22:52:58.945Z,98095.72
2023-03-23T22:55:26.853Z,98086.63
2023-03-23T22:57:53.351Z,98084.28
2023-03-23T23:00:20.986Z,98078.00
2023-03-23T23:02:49.396Z,98072.44
2023-03-23T23:05:16.377Z,98067.22
2023-03-23T23:07:43.265Z,98073.75
2023-03-23T23:10:10.267Z,98064.53
2023-03-23T23:12:37.114Z,98062.31
2023-03-23T23:15:07.154Z,98051.09
2023-03-23T23:17:34.761Z,98056.09
2023-03-23T23:20:05.380Z,98043.38
2023-03-23T23:22:31.991Z,98036.63
2023-03-23T23:24:58.784Z,98040.34
2023-03-23T23:27:25.329Z,98035.41
2023-03-23T23:29:53.382Z,98033.69
2023-03-23T23:32:20.617Z,98035.44
2023-03-23T23:34:47.471Z,98038.13
2023-03-23T23:37:13.996Z,98039.50
2023-03-23T23:39:41.638Z,98022.72
2023-03-23T23:42:08.300Z,98027.78
2023-03-23T23:44:36.069Z,98014.56
2023-03-23T23:47:03.280Z,98011.88
2023-03-23T23:49:31.743Z,98005.75
2023-03-23T23:51:58.588Z,98002.78
2023-03-23T23:54:30.175Z,98000.09
2023-03-23T23:56:58.618Z,98003.53
2023-03-23T23:59:25.919Z,97993.88
